Portada
METAR-TAF:

METAR-TAF

Aeroports :

Philip Municipal Airport

Philip, Dakota del Sud, Estats Units d'Amèrica

latitud: 44-03-04N, longitud: 101-36-04W, altitud: 673 m

Observació

L'informe es va fer fa 48 minuts, a les 09:55 UTC
Vent 8 kt del Oest
Temperatura -7°C
Humitat 79%
Pressió 1018 hPa
Visibilitat: 16.1 km
Cel cobert a una alçada de 11000 ft

METAR: KPHP 160955Z AUTO 26008KT 10SM OVC110 M07/M10 A3007 RMK AO2 SLP207 T10721100

Hora: 03:43 (10:43 UTC)


TAF: manca

Observacions i pronòstics meteorològics de més de 4000 aeroports (METAR i TAF).

Les estacions disponibles són els punts grocs i vermells al mapa.

Posi el ratolí al punt desitjat per veure el nom de l'estació.

Feu clic per veure les observacions i els pronòstics meteorològics.

Per canviar el mapa: feu clic els botons verds amb una creu de color negre per apropar; al botó verd amb un guió per allunyar la imatge; o en les fletxes verdes per a mapes adjacents.


METAR-TAF: